Hancock, Minnesota
Current Conditions -  °F | °C
As of 8:05 AM on Saturday 25 Oct 2014 (Local Time) from KMOX Reporting Station
Clear Clear  
Wind Chill: 45°   Ceiling: Unl
Heat Index: 48°   Visibility: 10mi
Dew Point: 36°   Wind: 7mph
Humidity: 62%   Direction: 320°NW
Pressure: 30.07"   Gusts: NA
Location:  45.5°N, 95.8°W
Report Text: KMOX 251305Z AUTO 32006KT 10SM CLR 09/02 A3007 RMK AO2
Loading
Personal Weather Stations






























Interactive Weather Map
Tropical Storm Tracking
New forecast layout! Learn more

10-Day Weather Forecast

Advertisements
Track Severe Weather on mobile